createdAt,value
2019-02-26T00:00:10.167Z,11.93
2019-02-26T00:02:36.443Z,12.17
2019-02-26T00:05:05.310Z,11.57
2019-02-26T00:07:34.171Z,14.20
2019-02-26T00:10:04.650Z,13.33
2019-02-26T00:12:33.326Z,13.90
2019-02-26T00:15:02.586Z,14.17
2019-02-26T00:17:29.636Z,15.07
2019-02-26T00:19:59.241Z,12.97
2019-02-26T00:22:29.981Z,15.63
2019-02-26T00:24:57.671Z,13.73
2019-02-26T00:27:28.201Z,14.52
2019-02-26T00:29:55.387Z,11.50
2019-02-26T00:32:24.978Z,12.00
2019-02-26T00:34:55.831Z,11.17
2019-02-26T00:37:24.256Z,12.33
2019-02-26T00:39:52.284Z,12.63
2019-02-26T00:42:23.622Z,13.30
2019-02-26T00:44:53.311Z,14.90
2019-02-26T00:47:19.413Z,11.70
2019-02-26T00:49:50.600Z,11.90
2019-02-26T00:52:17.890Z,15.53
2019-02-26T00:54:47.483Z,12.95
2019-02-26T00:57:16.328Z,13.70
2019-02-26T00:59:46.257Z,13.57
2019-02-26T01:02:14.007Z,14.53
2019-02-26T01:04:44.697Z,12.70
2019-02-26T01:07:11.698Z,11.13
2019-02-26T01:09:40.537Z,11.95
2019-02-26T01:12:11.819Z,13.50
2019-02-26T01:14:39.605Z,12.30
2019-02-26T01:17:09.863Z,10.60
2019-02-26T01:19:38.662Z,9.87
2019-02-26T01:22:06.639Z,12.03
2019-02-26T01:24:35.500Z,12.70
2019-02-26T01:27:05.068Z,10.70
2019-02-26T01:29:33.914Z,11.75
2019-02-26T01:32:02.752Z,12.63
2019-02-26T01:34:31.594Z,10.60
2019-02-26T01:37:00.929Z,11.87
2019-02-26T01:39:29.273Z,11.63
2019-02-26T01:41:58.798Z,9.97
2019-02-26T01:44:30.125Z,9.87
2019-02-26T01:46:58.313Z,8.30
2019-02-26T01:49:28.375Z,11.27
2019-02-26T01:51:54.952Z,10.40
2019-02-26T01:54:23.782Z,8.83
2019-02-26T01:56:53.420Z,8.83
2019-02-26T01:59:22.202Z,8.83
2019-02-26T02:01:51.862Z,9.70
2019-02-26T02:04:19.912Z,8.77
2019-02-26T02:06:48.726Z,8.63
2019-02-26T02:09:18.719Z,9.47
2019-02-26T02:11:46.446Z,9.27
2019-02-26T02:14:17.006Z,9.32
2019-02-26T02:16:44.116Z,10.85
2019-02-26T02:19:15.619Z,8.83
2019-02-26T02:21:41.822Z,9.07
2019-02-26T02:24:14.745Z,8.55
2019-02-26T02:26:41.082Z,11.70
2019-02-26T02:29:12.660Z,9.17
2019-02-26T02:31:40.150Z,8.40
2019-02-26T02:34:06.758Z,9.33
2019-02-26T02:36:35.594Z,8.43
2019-02-26T02:39:10.355Z,7.83
2019-02-26T02:41:33.276Z,10.93
2019-02-26T02:44:02.106Z,10.83
2019-02-26T02:46:30.946Z,9.77
2019-02-26T02:48:59.784Z,9.33
2019-02-26T02:51:31.189Z,8.83
2019-02-26T02:53:59.336Z,8.23
2019-02-26T02:56:26.313Z,8.47
2019-02-26T02:58:55.145Z,8.83
2019-02-26T03:01:25.833Z,9.63
2019-02-26T03:03:53.903Z,8.30
2019-02-26T03:06:24.127Z,10.07
2019-02-26T03:08:53.375Z,8.97
2019-02-26T03:11:20.015Z,10.32
2019-02-26T03:13:51.205Z,12.27
2019-02-26T03:16:19.483Z,9.90
2019-02-26T03:18:46.567Z,11.50
2019-02-26T03:21:16.798Z,10.80
2019-02-26T03:23:45.581Z,8.63
2019-02-26T03:26:15.241Z,7.63
2019-02-26T03:28:42.098Z,9.50
2019-02-26T03:31:10.731Z,9.47
2019-02-26T03:33:39.588Z,8.00
2019-02-26T03:36:10.944Z,9.48
2019-02-26T03:38:38.033Z,19.43
2019-02-26T03:41:07.612Z,10.03
2019-02-26T03:43:37.075Z,10.47
2019-02-26T03:46:05.286Z,9.33
2019-02-26T03:48:34.858Z,10.83
2019-02-26T03:51:03.696Z,9.97
2019-02-26T03:53:34.238Z,8.30
2019-02-26T03:56:04.241Z,10.48
2019-02-26T03:58:30.208Z,10.57
2019-02-26T04:01:01.539Z,10.57
2019-02-26T04:03:29.565Z,9.50
2019-02-26T04:05:57.865Z,10.70
2019-02-26T04:08:27.143Z,10.33
2019-02-26T04:10:55.960Z,9.60
2019-02-26T04:13:23.266Z,9.27
2019-02-26T04:15:54.090Z,10.65
2019-02-26T04:18:20.963Z,10.67
2019-02-26T04:20:49.803Z,12.40
2019-02-26T04:23:19.912Z,11.10
2019-02-26T04:25:53.939Z,13.87
2019-02-26T04:28:20.741Z,10.97
2019-02-26T04:33:42.128Z,12.57
2019-02-26T04:36:15.069Z,13.73
2019-02-26T04:38:53.213Z,13.93
2019-02-26T04:41:20.355Z,12.43
2019-02-26T04:43:51.952Z,10.70
2019-02-26T04:46:21.723Z,12.23
2019-02-26T04:48:50.526Z,11.98
2019-02-26T04:51:19.364Z,14.87
2019-02-26T04:53:49.179Z,13.23
2019-02-26T04:56:17.084Z,15.50
2019-02-26T04:58:47.757Z,11.50
2019-02-26T05:01:18.413Z,10.57
2019-02-26T05:03:44.295Z,12.67
2019-02-26T05:06:13.148Z,11.23
2019-02-26T05:08:42.896Z,14.37
2019-02-26T05:11:14.718Z,14.80
2019-02-26T05:13:40.408Z,12.53
2019-02-26T05:16:09.247Z,11.07
2019-02-26T05:18:38.326Z,14.43
2019-02-26T05:21:08.402Z,11.97
2019-02-26T05:23:36.032Z,12.97
2019-02-26T05:26:05.594Z,13.13
2019-02-26T05:28:37.671Z,12.27
2019-02-26T05:31:03.554Z,12.90
2019-02-26T05:33:32.831Z,11.20
2019-02-26T05:36:00.249Z,12.63
2019-02-26T05:38:30.588Z,11.77
2019-02-26T05:40:57.929Z,11.73
2019-02-26T05:43:28.288Z,13.02
2019-02-26T05:45:58.107Z,14.67
2019-02-26T05:48:25.963Z,16.00
2019-02-26T05:50:53.340Z,11.43
2019-02-26T05:53:23.029Z,11.37
2019-02-26T05:55:54.081Z,12.63
2019-02-26T05:58:21.454Z,15.53
2019-02-26T06:00:49.531Z,11.30
2019-02-26T06:03:18.824Z,11.50
2019-02-26T06:05:48.946Z,11.07
2019-02-26T06:08:16.114Z,12.00
2019-02-26T06:10:44.970Z,12.35
2019-02-26T06:13:15.712Z,12.27
2019-02-26T06:15:43.422Z,14.10
2019-02-26T06:18:12.291Z,13.07
2019-02-26T06:20:41.181Z,11.93
2019-02-26T06:23:10.049Z,12.33
2019-02-26T06:25:38.976Z,12.97
2019-02-26T06:28:12.061Z,12.60
2019-02-26T06:30:36.690Z,10.97
2019-02-26T06:33:07.127Z,13.27
2019-02-26T06:35:36.080Z,12.88
2019-02-26T06:38:04.610Z,12.48
2019-02-26T06:40:34.445Z,13.60
2019-02-26T06:43:01.114Z,14.43
2019-02-26T06:45:30.004Z,13.03
2019-02-26T06:47:58.878Z,12.30
2019-02-26T06:50:27.728Z,13.40
2019-02-26T06:52:57.324Z,13.13
2019-02-26T06:55:26.944Z,12.73
2019-02-26T06:57:55.826Z,12.87
2019-02-26T07:00:27.013Z,11.70
2019-02-26T07:02:53.554Z,12.90
2019-02-26T07:05:24.473Z,12.93
2019-02-26T07:07:54.153Z,16.73
2019-02-26T07:10:24.290Z,15.27
2019-02-26T07:12:50.609Z,13.03
2019-02-26T07:15:18.814Z,14.23
2019-02-26T07:17:47.716Z,13.57
2019-02-26T07:20:16.582Z,15.40
2019-02-26T07:22:47.202Z,12.90
2019-02-26T07:25:16.661Z,13.63
2019-02-26T07:27:43.232Z,12.13
2019-02-26T07:30:12.813Z,15.05
2019-02-26T07:32:45.127Z,13.00
2019-02-26T07:35:13.546Z,12.53
2019-02-26T07:37:40.352Z,15.13
2019-02-26T07:40:11.075Z,13.90
2019-02-26T07:42:39.608Z,14.33
2019-02-26T07:45:14.984Z,13.35
2019-02-26T07:47:38.427Z,15.10
2019-02-26T07:50:09.206Z,14.60
2019-02-26T07:52:36.940Z,19.63
2019-02-26T07:55:09.050Z,15.70
2019-02-26T07:57:35.734Z,19.20
2019-02-26T08:00:07.485Z,19.53
2019-02-26T08:02:37.353Z,15.53
2019-02-26T08:05:06.752Z,17.53
2019-02-26T08:07:35.633Z,16.57
2019-02-26T08:10:06.056Z,17.90
2019-02-26T08:12:35.580Z,17.30
2019-02-26T08:15:03.079Z,21.43
2019-02-26T08:17:31.200Z,20.97
2019-02-26T08:20:01.734Z,20.20
2019-02-26T08:22:30.152Z,15.57
2019-02-26T08:24:58.191Z,15.73
2019-02-26T08:27:28.631Z,18.23
2019-02-26T08:29:56.953Z,14.17
2019-02-26T08:32:26.175Z,15.30
2019-02-26T08:34:53.823Z,15.87
2019-02-26T08:37:22.791Z,17.33
2019-02-26T08:39:51.784Z,21.57
2019-02-26T08:42:21.407Z,19.23
2019-02-26T08:44:51.229Z,18.23
2019-02-26T08:47:21.140Z,17.87
2019-02-26T08:49:49.616Z,16.13
2019-02-26T08:52:21.489Z,17.40
2019-02-26T08:54:47.390Z,19.70
2019-02-26T08:57:17.091Z,16.03
2019-02-26T08:59:47.288Z,15.70
2019-02-26T09:02:14.974Z,17.70
2019-02-26T09:04:45.166Z,18.42
2019-02-26T09:07:14.091Z,17.60
2019-02-26T09:09:41.565Z,18.10
2019-02-26T09:12:10.437Z,19.00
2019-02-26T09:14:42.385Z,17.20
2019-02-26T09:17:08.978Z,17.80
2019-02-26T09:19:38.207Z,18.53
2019-02-26T09:22:09.638Z,13.70
2019-02-26T09:24:36.705Z,17.53
2019-02-26T09:27:06.802Z,17.43
2019-02-26T09:29:36.741Z,14.30
2019-02-26T09:32:06.670Z,16.80
2019-02-26T09:34:34.310Z,16.67
2019-02-26T09:37:05.017Z,15.57
2019-02-26T09:39:32.501Z,15.30
2019-02-26T09:42:02.267Z,13.30
2019-02-26T09:44:31.447Z,14.13
2019-02-26T09:47:00.560Z,15.20
2019-02-26T09:49:28.499Z,13.73
2019-02-26T09:51:56.842Z,14.77
2019-02-26T09:54:26.558Z,14.80
2019-02-26T09:56:55.431Z,15.68
2019-02-26T09:59:26.314Z,16.80
2019-02-26T10:01:54.280Z,15.97
2019-02-26T10:04:23.803Z,18.47
2019-02-26T10:06:51.591Z,14.97
2019-02-26T10:09:20.750Z,14.50
2019-02-26T10:11:51.457Z,13.30
2019-02-26T10:14:19.351Z,17.20
2019-02-26T10:16:50.079Z,15.03
2019-02-26T10:19:19.074Z,16.37
2019-02-26T10:21:46.271Z,17.63
2019-02-26T10:24:15.204Z,15.55
2019-02-26T10:26:44.128Z,14.17
2019-02-26T10:29:13.012Z,14.30
2019-02-26T10:31:41.920Z,14.87
2019-02-26T10:34:13.337Z,15.40
2019-02-26T10:36:43.527Z,16.10
2019-02-26T10:39:08.650Z,16.23
2019-02-26T10:41:39.321Z,16.30
2019-02-26T10:44:07.100Z,15.27
2019-02-26T10:46:37.153Z,14.37
2019-02-26T10:49:04.891Z,17.13
2019-02-26T10:51:33.756Z,15.17
2019-02-26T10:54:03.412Z,14.87
2019-02-26T10:56:36.269Z,15.83
2019-02-26T10:59:03.541Z,13.83
2019-02-26T11:01:30.853Z,14.23
2019-02-26T11:03:58.332Z,13.33
2019-02-26T11:06:27.236Z,16.27
2019-02-26T11:08:58.711Z,14.37
2019-02-26T11:11:25.023Z,14.17
2019-02-26T11:13:53.926Z,15.00
2019-02-26T11:16:28.057Z,13.17
2019-02-26T11:18:55.980Z,16.40
2019-02-26T11:21:24.843Z,20.57
2019-02-26T11:23:53.742Z,13.83
2019-02-26T11:26:22.966Z,15.27
2019-02-26T11:28:52.454Z,15.47
2019-02-26T11:31:25.340Z,11.50
2019-02-26T11:33:50.238Z,11.90
2019-02-26T11:36:19.115Z,12.93
2019-02-26T11:38:47.966Z,11.63
2019-02-26T11:41:16.831Z,15.40
2019-02-26T11:43:45.751Z,14.60
2019-02-26T11:46:14.639Z,20.57
2019-02-26T11:48:45.176Z,13.97
2019-02-26T11:53:48.261Z,12.15
2019-02-26T11:56:20.739Z,15.50
2019-02-26T11:58:47.467Z,11.90
2019-02-26T12:01:17.921Z,18.47
2019-02-26T12:03:46.812Z,14.90
2019-02-26T12:06:15.737Z,19.17
2019-02-26T12:08:45.347Z,18.10
2019-02-26T12:11:17.701Z,16.17
2019-02-26T12:13:44.535Z,11.87
2019-02-26T12:16:11.723Z,13.97
2019-02-26T12:18:41.665Z,14.77
2019-02-26T12:21:10.498Z,15.50
2019-02-26T12:23:39.693Z,14.37
2019-02-26T12:26:07.614Z,17.37
2019-02-26T12:28:38.344Z,16.35
2019-02-26T12:31:08.114Z,13.05
2019-02-26T12:33:35.026Z,12.77
2019-02-26T12:36:05.234Z,14.23
2019-02-26T12:38:36.557Z,11.07
2019-02-26T12:41:02.618Z,12.43
2019-02-26T12:43:33.239Z,9.40
2019-02-26T12:46:02.126Z,9.47
2019-02-26T12:48:29.994Z,8.83
2019-02-26T12:51:01.429Z,10.63
2019-02-26T12:53:28.494Z,12.70
2019-02-26T12:55:59.228Z,12.48
2019-02-26T12:58:27.758Z,16.27
2019-02-26T13:00:55.194Z,16.67
2019-02-26T13:03:24.114Z,11.17
2019-02-26T13:05:52.974Z,10.93
2019-02-26T13:08:24.098Z,11.73
2019-02-26T13:10:55.560Z,13.07
2019-02-26T13:13:20.261Z,9.73
2019-02-26T13:15:49.253Z,12.93
2019-02-26T13:18:18.115Z,11.10
2019-02-26T13:20:52.044Z,14.80
2019-02-26T13:23:20.072Z,13.10
2019-02-26T13:25:46.309Z,11.27
2019-02-26T13:28:15.182Z,10.13
2019-02-26T13:30:44.814Z,9.47
2019-02-26T13:33:14.329Z,10.17
2019-02-26T13:35:46.776Z,8.30
2019-02-26T13:38:11.894Z,10.13
2019-02-26T13:40:40.760Z,9.90
2019-02-26T13:43:10.382Z,7.57
2019-02-26T13:45:39.975Z,7.13
2019-02-26T13:48:08.850Z,10.20
2019-02-26T13:50:39.144Z,7.53
2019-02-26T13:53:07.463Z,8.50
2019-02-26T13:55:36.345Z,8.97
2019-02-26T13:58:11.531Z,7.83
2019-02-26T14:00:34.143Z,9.27
2019-02-26T14:03:04.246Z,9.37
2019-02-26T14:05:38.210Z,9.37
2019-02-26T14:08:01.541Z,9.60
2019-02-26T14:10:30.451Z,8.83
2019-02-26T14:12:59.330Z,12.30
2019-02-26T14:15:28.967Z,9.60
2019-02-26T14:17:57.831Z,10.93
2019-02-26T14:20:26.735Z,9.87
2019-02-26T14:22:55.586Z,10.07
2019-02-26T14:25:44.967Z,7.63
2019-02-26T14:28:14.604Z,7.60
2019-02-26T14:30:43.438Z,7.67
2019-02-26T14:33:12.369Z,9.57
2019-02-26T14:35:41.247Z,8.57
2019-02-26T14:38:10.853Z,7.77
2019-02-26T14:40:39.765Z,15.70
2019-02-26T14:43:08.625Z,8.70
2019-02-26T14:45:38.249Z,7.97
2019-02-26T14:48:07.110Z,8.38
2019-02-26T14:50:35.981Z,8.17
2019-02-26T14:53:05.678Z,7.10
2019-02-26T14:55:34.567Z,8.13
2019-02-26T14:58:03.480Z,10.27
2019-02-26T15:00:32.336Z,8.43
2019-02-26T15:03:01.244Z,6.07
2019-02-26T15:05:30.140Z,10.20
2019-02-26T15:07:59.041Z,8.43
2019-02-26T15:10:27.923Z,10.20
2019-02-26T15:12:56.813Z,8.67
2019-02-26T15:15:25.685Z,7.90
2019-02-26T15:17:54.540Z,8.90
2019-02-26T15:20:24.157Z,7.83
2019-02-26T15:22:52.998Z,8.50
2019-02-26T15:28:06.755Z,9.07
2019-02-26T15:30:36.257Z,7.90
2019-02-26T15:33:10.964Z,8.75
2019-02-26T15:35:33.942Z,8.83
2019-02-26T15:38:03.558Z,11.53
2019-02-26T15:40:33.275Z,7.50
2019-02-26T15:43:02.971Z,12.43
2019-02-26T15:45:32.585Z,10.03
2019-02-26T15:48:03.805Z,10.95
2019-02-26T15:50:30.356Z,11.85
2019-02-26T15:52:59.206Z,10.67
2019-02-26T15:55:29.219Z,12.03
2019-02-26T15:58:03.069Z,11.33
2019-02-26T16:00:28.179Z,16.67
2019-02-26T16:02:59.403Z,11.57
2019-02-26T16:05:25.909Z,9.73
2019-02-26T16:07:54.795Z,13.10
2019-02-26T16:10:23.674Z,11.63
2019-02-26T16:12:52.536Z,12.33
2019-02-26T16:15:22.144Z,12.30
2019-02-26T16:17:50.999Z,12.30
2019-02-26T16:20:20.656Z,12.57
2019-02-26T16:22:49.527Z,10.48
2019-02-26T16:25:19.163Z,10.90
2019-02-26T16:27:48.020Z,13.43
2019-02-26T16:30:22.584Z,10.67
2019-02-26T16:32:51.481Z,11.47
2019-02-26T16:35:24.827Z,6.87
2019-02-26T16:37:49.620Z,14.23
2019-02-26T16:40:18.527Z,8.27
2019-02-26T16:42:47.410Z,10.20
2019-02-26T16:45:17.034Z,10.53
2019-02-26T16:47:48.502Z,8.83
2019-02-26T16:52:55.263Z,12.00
2019-02-26T16:55:24.162Z,12.20
2019-02-26T16:57:52.999Z,8.37
2019-02-26T17:00:23.446Z,10.52
2019-02-26T17:02:52.271Z,8.50
2019-02-26T17:05:21.163Z,7.53
2019-02-26T17:07:50.527Z,10.27
2019-02-26T17:10:19.742Z,8.77
2019-02-26T17:12:49.471Z,8.97
2019-02-26T17:15:19.296Z,7.73
2019-02-26T17:17:48.432Z,12.73
2019-02-26T17:20:19.564Z,6.37
2019-02-26T17:22:46.213Z,8.13
2019-02-26T17:25:15.652Z,9.67
2019-02-26T17:27:44.500Z,7.43
2019-02-26T17:30:14.149Z,7.17
2019-02-26T17:32:43.004Z,7.50
2019-02-26T17:35:12.789Z,9.10
2019-02-26T17:37:42.166Z,10.73
2019-02-26T17:42:51.240Z,10.95
2019-02-26T17:45:19.246Z,9.90
2019-02-26T17:47:48.142Z,12.07
2019-02-26T17:50:17.719Z,14.03
2019-02-26T17:52:52.868Z,12.80
2019-02-26T17:55:22.457Z,13.60
2019-02-26T17:57:51.314Z,12.18
2019-02-26T18:00:20.855Z,12.07
2019-02-26T18:02:49.700Z,10.77
2019-02-26T18:05:18.759Z,11.67
2019-02-26T18:07:48.355Z,10.33
2019-02-26T18:10:17.214Z,9.37
2019-02-26T18:12:46.085Z,10.27
2019-02-26T18:15:17.645Z,12.87
2019-02-26T18:17:43.800Z,9.37
2019-02-26T18:20:12.661Z,13.00
2019-02-26T18:22:41.820Z,9.10
2019-02-26T18:25:11.358Z,7.80
2019-02-26T18:27:40.226Z,7.57
2019-02-26T18:30:11.014Z,8.13
2019-02-26T18:32:39.954Z,7.77
2019-02-26T18:35:09.501Z,7.63
2019-02-26T18:37:46.231Z,8.30
2019-02-26T18:40:09.098Z,7.17
2019-02-26T18:42:38.753Z,7.47
2019-02-26T18:45:10.086Z,8.63
2019-02-26T18:47:42.276Z,7.57
2019-02-26T18:50:07.854Z,7.97
2019-02-26T18:52:41.170Z,9.37
2019-02-26T18:55:08.405Z,7.70
2019-02-26T18:57:37.685Z,9.33
2019-02-26T19:00:06.535Z,7.53
2019-02-26T19:02:35.997Z,8.47
2019-02-26T19:05:04.227Z,7.63
2019-02-26T19:07:33.810Z,10.17
2019-02-26T19:10:02.298Z,8.63
2019-02-26T19:12:33.401Z,8.20
2019-02-26T19:15:02.269Z,10.60
2019-02-26T19:17:31.097Z,9.07
2019-02-26T19:19:59.938Z,9.93
2019-02-26T19:22:28.887Z,7.43
2019-02-26T19:24:57.753Z,8.83
2019-02-26T19:27:26.626Z,10.02
2019-02-26T19:29:59.028Z,7.97
2019-02-26T19:32:26.890Z,8.97
2019-02-26T19:34:55.804Z,10.83
2019-02-26T19:37:26.742Z,10.53
2019-02-26T19:39:54.874Z,16.57
2019-02-26T19:42:24.421Z,17.10
2019-02-26T19:44:53.289Z,16.47
2019-02-26T19:47:22.761Z,16.67
2019-02-26T19:49:51.139Z,17.60
2019-02-26T19:52:19.904Z,16.00
2019-02-26T19:54:48.834Z,16.37
2019-02-26T19:57:18.639Z,13.37
2019-02-26T19:59:47.711Z,16.20
2019-02-26T20:02:16.340Z,11.33
2019-02-26T20:04:45.916Z,16.37
2019-02-26T20:07:14.777Z,13.13
2019-02-26T20:09:43.719Z,17.00
2019-02-26T20:12:12.799Z,24.27
2019-02-26T20:14:41.690Z,23.30
2019-02-26T20:17:14.756Z,19.87
2019-02-26T20:19:40.144Z,18.63
2019-02-26T20:22:08.975Z,33.83
2019-02-26T20:24:39.523Z,25.97
2019-02-26T20:27:07.824Z,23.10
2019-02-26T20:29:36.694Z,24.57
2019-02-26T20:32:05.564Z,20.77
2019-02-26T20:34:34.419Z,18.47
2019-02-26T20:37:03.281Z,20.37
2019-02-26T20:39:32.131Z,16.23
2019-02-26T20:42:01.926Z,19.83
2019-02-26T20:44:30.738Z,20.47
2019-02-26T20:46:59.596Z,13.63
2019-02-26T20:49:28.444Z,14.73
2019-02-26T20:51:59.413Z,16.27
2019-02-26T20:54:26.162Z,12.80
2019-02-26T20:56:55.011Z,18.97
2019-02-26T20:59:24.611Z,17.80
2019-02-26T21:01:53.462Z,14.37
2019-02-26T21:04:22.319Z,18.20
2019-02-26T21:06:52.043Z,16.37
2019-02-26T21:09:22.143Z,13.57
2019-02-26T21:11:53.641Z,15.97
2019-02-26T21:14:20.055Z,17.37
2019-02-26T21:16:53.612Z,14.37
2019-02-26T21:19:20.703Z,13.83
2019-02-26T21:21:50.297Z,13.03
2019-02-26T21:24:19.279Z,14.17
2019-02-26T21:26:48.138Z,10.43
2019-02-26T21:29:18.323Z,13.23
2019-02-26T21:31:47.176Z,16.50
2019-02-26T21:34:16.311Z,12.50
2019-02-26T21:36:46.147Z,13.83
2019-02-26T21:39:14.855Z,14.30
2019-02-26T21:41:43.962Z,13.83
2019-02-26T21:44:14.497Z,15.73
2019-02-26T21:46:41.687Z,13.00
2019-02-26T21:49:10.852Z,12.53
2019-02-26T21:51:39.791Z,15.63
2019-02-26T21:54:08.700Z,18.17
2019-02-26T21:56:37.566Z,15.17
2019-02-26T21:59:07.002Z,12.80
2019-02-26T22:01:36.806Z,13.47
2019-02-26T22:04:06.434Z,10.53
2019-02-26T22:06:36.284Z,12.40
2019-02-26T22:09:05.030Z,10.80
2019-02-26T22:11:33.892Z,11.67
2019-02-26T22:14:02.985Z,13.03
2019-02-26T22:16:31.615Z,10.87
2019-02-26T22:19:00.470Z,13.37
2019-02-26T22:21:31.357Z,11.37
2019-02-26T22:24:01.054Z,15.40
2019-02-26T22:26:29.896Z,11.02
2019-02-26T22:28:58.851Z,13.57
2019-02-26T22:31:28.962Z,14.90
2019-02-26T22:33:56.891Z,15.37
2019-02-26T22:36:26.514Z,11.63
2019-02-26T22:38:55.366Z,10.97
2019-02-26T22:41:24.210Z,14.80
2019-02-26T22:43:53.134Z,11.60
2019-02-26T22:46:21.962Z,10.90
2019-02-26T22:48:50.899Z,12.90
2019-02-26T22:51:19.739Z,12.60
2019-02-26T22:53:48.592Z,9.97
2019-02-26T22:56:17.682Z,10.80
2019-02-26T22:58:51.184Z,11.17
2019-02-26T23:01:30.063Z,10.87
2019-02-26T23:03:49.618Z,13.00
2019-02-26T23:06:18.474Z,12.90
2019-02-26T23:08:47.359Z,14.80
2019-02-26T23:11:16.245Z,14.30
2019-02-26T23:13:45.114Z,18.00
2019-02-26T23:16:17.931Z,14.40
2019-02-26T23:18:42.858Z,14.97
2019-02-26T23:21:15.443Z,15.57
2019-02-26T23:23:42.099Z,14.17
2019-02-26T23:26:10.968Z,11.60
2019-02-26T23:28:39.815Z,15.83
2019-02-26T23:31:09.902Z,13.33
2019-02-26T23:33:40.786Z,12.57
2019-02-26T23:36:09.631Z,12.57
2019-02-26T23:38:39.151Z,12.60
2019-02-26T23:41:08.011Z,12.37
2019-02-26T23:43:36.870Z,15.17
2019-02-26T23:46:06.624Z,15.60
2019-02-26T23:48:35.315Z,12.93
2019-02-26T23:51:04.170Z,14.03
2019-02-26T23:53:35.774Z,15.47
2019-02-26T23:56:04.658Z,13.23
2019-02-26T23:58:33.484Z,19.13
